Latest Weather Observations for Laverton

IDV60801

Issued at 12:02 pm EST Tuesday 21 September 2021 (issued every 10 minutes, with the page automatically refreshed every 10 minutes)

About weather observations | Map of weather stations | Latest weather observations for VIC | Other Formats
Station Details ID: 087031 Name: LAVERTON RAAF Lat: -37.86 Lon: 144.76 Height: 20.1 m
Data from the previous 72 hours. | See also: Recent months at Laverton
Date/Time
EST
Temp
°C
App
Temp
°C
Dew
Point
°C
Rel
Hum
%
Delta-T
°C
Wind Press
QNH
hPa
Press
MSL
hPa
Rain since
9am
mm
Dir  Spd
km/h
Gust
km/h
Spd
kts
Gust
kts
21/12:00pm 12.3 4.8 3.5 55 3.9 SW 32 44 17 24 1026.2 1026.2 0.2
21/11:30am 11.9 4.4 3.7 57 3.7 SSW 32 44 17 24 1025.8 1025.8 0.2
21/11:00am 11.2 4.8 5.3 67 2.7 SW 28 43 15 23 1025.9 1025.9 0.2
21/10:30am 9.9 5.7 7.5 85 1.1 SW 19 26 10 14 1026.0 1026.0 0.2
21/10:14am 8.5 1.6 6.3 86 1.0 SSW 32 48 17 26 1026.0 1026.0 0.0
21/10:07am 10.7 4.5 6.1 73 2.1 SSW 28 48 15 26 1025.9 1025.9 0.0
21/10:00am 11.4 6.7 6.1 70 2.5 SW 20 33 11 18 1025.7 1025.7 0.0
21/09:30am 9.1 3.0 4.9 75 1.9 SW 26 39 14 21 1025.6 1025.6 0.0
21/09:00am 10.1 5.4 5.9 75 1.9 WSW 20 30 11 16 1025.3 1025.3 7.4
21/08:30am 8.7 3.4 5.1 78 1.6 WSW 22 30 12 16 1024.8 1024.8 7.4
21/08:00am 7.3 2.5 4.8 84 1.1 W 19 28 10 15 1024.3 1024.3 7.4
21/07:30am 7.1 2.3 4.9 86 1.0 WSW 19 26 10 14 1023.8 1023.8 7.2
21/07:00am 6.3 2.7 5.1 92 0.5 SW 13 17 7 9 1023.6 1023.6 7.2
21/06:30am 6.2 0.1 4.7 90 0.6 WSW 26 33 14 18 1022.7 1022.7 7.0
21/06:13am 6.2 1.4 4.8 91 0.6 WSW 19 26 10 14 1022.7 1022.7 7.0
21/06:00am 6.3 1.4 5.1 92 0.5 WSW 20 32 11 17 1022.7 1022.7 7.0
21/05:39am 6.3 1.3 4.8 90 0.7 WSW 20 32 11 17 1022.1 1022.1 6.6
21/05:30am 6.3 1.4 4.9 91 0.6 WSW 20 35 11 19 1021.9 1021.9 6.6
21/05:22am 6.3 2.0 5.3 93 0.4 WSW 17 24 9 13 1021.9 1021.9 6.4
21/05:02am 6.2 1.8 4.8 91 0.6 WSW 17 26 9 14 1021.3 1021.3 6.2
21/05:00am 6.2 1.8 5.0 92 0.5 WSW 17 26 9 14 1021.3 1021.3 6.2
21/04:47am 6.2 1.2 4.8 91 0.6 WSW 20 30 11 16 1021.1 1021.1 6.2
21/04:42am 6.2 1.4 4.5 89 0.7 WSW 19 30 10 16 1021.3 1021.3 6.0
21/04:30am 6.0 1.6 5.0 93 0.4 WSW 17 24 9 13 1021.1 1021.1 6.0
21/04:15am 6.0 1.6 4.8 92 0.5 W 17 22 9 12 1020.7 1020.7 5.0
21/04:00am 5.8 1.4 4.6 92 0.5 W 17 22 9 12 1020.3 1020.3 4.6
21/03:49am 5.9 1.5 4.7 92 0.5 W 17 26 9 14 1020.1 1020.1 4.6
21/03:34am 6.1 0.4 4.7 91 0.6 W 24 37 13 20 1020.1 1020.1 4.4
21/03:30am 6.2 0.5 4.7 90 0.6 W 24 37 13 20 1020.0 1020.0 4.4
21/03:00am 6.0 0.6 4.5 90 0.6 W 22 32 12 17 1019.7 1019.7 4.4
21/02:44am 6.0 0.6 4.5 90 0.6 WSW 22 35 12 19 1019.6 1019.6 4.4
21/02:34am 6.0 1.0 4.6 91 0.6 WSW 20 32 11 17 1019.7 1019.7 4.2
21/02:30am 6.0 0.6 4.6 91 0.6 WSW 22 32 12 17 1019.8 1019.8 4.2
21/02:00am 5.9 0.1 4.2 89 0.7 W 24 37 13 20 1019.6 1019.6 4.0
21/01:30am 5.9 1.1 4.5 91 0.6 W 19 24 10 13 1019.5 1019.5 4.0
21/01:00am 5.9 0.8 3.9 87 0.8 W 20 28 11 15 1019.2 1019.2 3.2
21/12:30am 5.9 1.0 3.9 87 0.8 WSW 19 28 10 15 1018.9 1018.9 3.2
21/12:00am 6.1 0.9 3.3 82 1.2 W 20 28 11 15 1018.7 1018.7 2.6
 
Date/Time
EST
Temp
°C
App
Temp
°C
Dew
Point
°C
Rel
Hum
%
Delta-T
°C
Wind Press
QNH
hPa
Press
MSL
hPa
Rain since
9am
mm
Dir  Spd
km/h
Gust
km/h
Spd
kts
Gust
kts
20/11:30pm 5.9 -0.2 2.7 80 1.3 W 24 37 13 20 1018.3 1018.3 2.6
20/11:00pm 5.7 0.4 2.9 82 1.2 W 20 26 11 14 1018.1 1018.1 2.6
20/10:30pm 5.6 0.3 2.8 82 1.2 W 20 28 11 15 1017.7 1017.7 2.6
20/10:00pm 5.6 -0.1 2.8 82 1.1 WNW 22 28 12 15 1017.2 1017.2 2.6
20/09:30pm 5.7 0.0 2.9 82 1.2 W 22 32 12 17 1017.1 1017.1 2.6
20/09:00pm 5.7 0.0 3.0 83 1.1 W 22 30 12 16 1016.7 1016.7 2.6
20/08:30pm 5.5 0.4 3.0 84 1.0 W 19 24 10 13 1016.3 1016.3 2.6
20/08:00pm 5.7 0.6 3.2 84 1.0 W 19 24 10 13 1016.3 1016.3 2.6
20/07:30pm 5.6 0.5 3.3 85 1.0 W 19 24 10 13 1015.7 1015.7 2.6
20/07:00pm 5.8 -0.2 3.6 86 0.9 W 24 35 13 19 1015.2 1015.2 2.6
20/06:30pm 6.0 0.1 3.7 85 1.0 W 24 35 13 19 1014.4 1014.4 2.6
20/06:03pm 6.2 0.7 4.0 86 0.9 W 22 33 12 18 1014.1 1014.1 2.6
20/06:00pm 6.2 0.3 3.9 85 1.0 W 24 35 13 19 1014.0 1014.0 2.6
20/05:44pm 6.3 -1.4 3.6 83 1.1 W 33 63 18 34 1014.2 1014.2 2.2
20/05:42pm 7.4 0.4 4.0 79 1.5 W 30 57 16 31 1014.1 1014.1 1.8
20/05:30pm 8.2 3.2 4.6 78 1.6 W 20 35 11 19 1013.3 1013.3 1.6
20/05:00pm 8.3 3.0 5.1 80 1.4 WNW 22 28 12 15 1012.9 1012.9 1.6
20/04:37pm 7.3 1.5 4.6 83 1.2 WNW 24 32 13 17 1012.9 1012.9 1.6
20/04:30pm 7.2 1.6 5.3 88 0.8 WNW 24 32 13 17 1012.8 1012.8 1.6
20/04:22pm 6.5 -0.8 4.5 87 0.9 W 32 50 17 27 1012.9 1012.9 1.4
20/04:19pm 6.7 -1.2 4.5 86 1.0 W 35 50 19 27 1013.0 1013.0 1.2
20/04:15pm 7.6 0.4 4.9 83 1.2 WSW 32 50 17 27 1012.9 1012.9 1.0
20/04:00pm 8.0 0.7 4.4 78 1.6 WSW 32 44 17 24 1012.6 1012.6 0.6
20/03:49pm 8.4 2.0 5.2 80 1.4 W 28 46 15 25 1012.3 1012.3 0.6
20/03:30pm 9.7 3.1 4.1 68 2.5 W 28 41 15 22 1012.0 1012.0 0.6
20/03:02pm 8.6 1.8 3.2 69 2.3 W 28 46 15 25 1012.1 1012.1 0.6
20/03:00pm 8.6 1.4 3.2 69 2.3 W 30 46 16 25 1012.1 1012.1 0.6
20/02:39pm 10.3 2.9 4.2 66 2.7 W 32 56 17 30 1011.4 1011.5 0.6
20/02:30pm 10.6 3.1 4.3 65 2.8 W 33 48 18 26 1011.4 1011.5 0.6
20/02:00pm 10.3 3.8 4.9 69 2.4 W 28 41 15 22 1011.7 1011.7 0.6
20/01:30pm 7.5 -1.5 4.5 81 1.3 W 41 65 22 35 1012.4 1012.4 0.4
20/01:16pm 10.1 3.2 4.5 68 2.5 WNW 30 72 16 39 1012.2 1012.2 0.2
20/01:00pm 9.6 3.9 4.8 72 2.2 WNW 24 37 13 20 1011.9 1011.9 0.2
20/12:30pm 9.1 1.5 4.1 71 2.2 W 33 52 18 28 1012.3 1012.3 0.2
20/12:29pm 9.2 1.7 4.4 72 2.1 W 33 52 18 28 1012.2 1012.2 0.2
20/12:14pm 10.2 3.2 5.8 74 2.0 WSW 32 46 17 25 1012.4 1012.4 0.2
20/12:00pm 8.2 -0.3 5.3 82 1.3 WSW 39 67 21 36 1012.9 1012.9 0.2
20/11:57am 8.4 0.3 5.3 81 1.4 WSW 37 67 20 36 1013.0 1013.0 0.2
20/11:30am 10.6 3.2 5.2 69 2.5 WSW 33 57 18 31 1012.3 1012.3 0.0
20/11:29am 10.4 2.6 4.8 68 2.5 WSW 35 57 19 31 1012.4 1012.4 0.0
20/11:27am 10.0 1.3 4.0 66 2.6 WSW 39 57 21 31 1012.5 1012.5 0.0
20/11:05am 12.7 5.3 4.2 56 3.9 W 32 52 17 28 1012.2 1012.2 0.0
20/11:00am 12.2 4.9 4.7 60 3.4 W 32 44 17 24 1012.3 1012.3 0.0
20/10:30am 13.1 5.4 3.5 52 4.3 W 33 52 18 28 1011.9 1011.9 0.0
20/10:19am 12.8 4.5 4.0 55 4.0 W 37 56 20 30 1012.0 1012.0 0.0
20/10:00am 12.9 4.4 3.0 51 4.4 W 37 50 20 27 1012.0 1012.0 0.0
20/09:30am 12.3 4.6 3.5 55 3.9 W 33 46 18 25 1012.1 1012.1 0.0
20/09:00am 12.3 4.8 3.5 55 3.9 W 32 52 17 28 1012.0 1012.0 0.2
20/08:30am 11.7 4.6 3.7 58 3.6 WNW 30 48 16 26 1011.7 1011.7 0.2
20/08:00am 11.0 4.0 4.2 63 3.0 WNW 30 44 16 24 1011.8 1011.8 0.2
20/07:30am 10.3 4.0 4.0 65 2.8 WNW 26 37 14 20 1011.4 1011.5 0.2
20/07:00am 9.6 3.8 4.2 69 2.4 WNW 24 35 13 19 1011.1 1011.2 0.2
20/06:30am 9.2 3.3 4.0 70 2.3 WNW 24 32 13 17 1010.9 1011.0 0.2
20/06:00am 9.7 3.4 3.9 67 2.5 WNW 26 39 14 21 1010.6 1010.7 0.2
20/05:30am 9.8 4.0 4.6 70 2.3 WNW 24 35 13 19 1010.4 1010.5 0.2
20/05:00am 10.1 5.1 4.5 68 2.5 WNW 20 30 11 16 1010.1 1010.2 0.2
20/04:30am 11.0 3.5 4.5 64 2.9 W 33 48 18 26 1009.9 1010.0 0.2
20/04:00am 11.3 5.2 5.0 65 2.9 WNW 26 43 14 23 1009.8 1009.9 0.2
20/03:39am 11.7 4.8 4.7 62 3.2 WNW 30 48 16 26 1009.4 1009.5 0.2
20/03:30am 11.7 5.3 5.1 64 3.0 WNW 28 37 15 20 1009.5 1009.6 0.2
20/03:00am 11.1 6.6 6.3 72 2.3 NW 19 30 10 16 1009.6 1009.7 0.2
20/02:30am 11.2 6.3 7.1 76 2.0 NW 22 30 12 16 1009.9 1010.0 0.2
20/02:00am 10.8 6.4 7.3 79 1.7 WNW 20 28 11 15 1010.4 1010.5 0.2
20/01:30am 11.3 6.5 7.2 76 2.0 WNW 22 33 12 18 1010.6 1010.7 0.2
20/01:00am 12.4 6.8 7.3 71 2.5 W 26 43 14 23 1011.2 1011.3 0.0
20/12:30am 12.7 8.0 7.8 72 2.4 W 22 35 12 19 1011.1 1011.2 0.0
20/12:00am 13.5 8.7 9.0 74 2.3 W 24 39 13 21 1011.2 1011.3 0.0
 
Date/Time
EST
Temp
°C
App
Temp
°C
Dew
Point
°C
Rel
Hum
%
Delta-T
°C
Wind Press
QNH
hPa
Press
MSL
hPa
Rain since
9am
mm
Dir  Spd
km/h
Gust
km/h
Spd
kts
Gust
kts
19/11:30pm 13.5 7.7 9.6 77 2.0 WNW 30 41 16 22 1011.1 1011.2 0.0
19/11:00pm 14.5 10.7 9.7 73 2.5 W 20 30 11 16 1011.3 1011.4 0.0
19/10:55pm 14.7 10.8 9.3 70 2.8 WNW 20 32 11 17 1011.2 1011.3 0.0
19/10:30pm 15.0 7.7 8.9 67 3.1 NW 37 54 20 29 1010.6 1010.7 0.0
19/10:24pm 14.9 8.0 8.8 67 3.1 NW 35 54 19 29 1010.7 1010.8 0.0
19/10:00pm 14.9 9.0 9.1 68 3.0 NW 30 41 16 22 1010.7 1010.8 0.0
19/09:30pm 15.3 8.4 9.0 66 3.2 NW 35 50 19 27 1010.6 1010.7 0.0
19/09:00pm 15.3 8.8 8.8 65 3.3 NW 33 52 18 28 1011.0 1011.1 0.0
19/08:30pm 15.2 9.8 8.2 63 3.5 NNW 26 44 14 24 1011.2 1011.3 0.0
19/08:00pm 14.8 8.7 8.3 65 3.3 NNW 30 48 16 26 1011.2 1011.3 0.0
19/07:30pm 15.0 8.5 8.0 63 3.5 NNW 32 50 17 27 1011.2 1011.3 0.0
19/07:06pm 15.7 8.1 7.7 59 4.0 NW 37 61 20 33 1011.4 1011.5 0.0
19/07:00pm 15.7 8.4 7.2 57 4.2 NW 35 52 19 28 1011.5 1011.6 0.0
19/06:51pm 15.8 9.0 7.1 56 4.3 NW 32 52 17 28 1011.7 1011.7 0.0
19/06:30pm 15.8 9.4 6.8 55 4.4 NW 30 44 16 24 1011.9 1011.9 0.0
19/06:00pm 16.2 9.3 6.6 53 4.7 NW 32 48 17 26 1011.8 1011.8 0.0
19/05:43pm 16.5 9.1 6.6 52 4.9 NW 35 54 19 29 1011.7 1011.7 0.0
19/05:30pm 16.6 8.7 6.4 51 5.0 NW 37 50 20 27 1011.5 1011.6 0.0
19/05:00pm 17.3 9.5 6.5 49 5.3 NW 37 57 20 31 1011.8 1011.8 0.0
19/04:30pm 17.6 9.7 6.2 47 5.6 NNW 37 57 20 31 1011.4 1011.5 0.0
19/04:00pm 18.2 10.8 6.7 47 5.7 NW 35 54 19 29 1011.4 1011.5 0.0
19/03:41pm 17.7 10.6 6.3 47 5.6 NNW 33 54 18 29 1011.7 1011.7 0.0
19/03:30pm 17.5 10.6 6.4 48 5.5 NNW 32 44 17 24 1011.8 1011.8 0.0
19/03:00pm 17.4 10.0 6.6 49 5.3 NNW 35 56 19 30 1012.2 1012.2 0.0
19/02:47pm 17.8 10.2 6.0 46 5.8 NNW 35 63 19 34 1012.1 1012.1 0.0
19/02:30pm 18.6 11.6 6.8 46 5.9 NNW 33 50 18 27 1012.4 1012.4 0.0
19/02:05pm 17.1 10.2 6.6 50 5.2 NNW 32 50 17 27 1012.9 1012.9 0.0
19/02:00pm 16.9 9.4 6.1 49 5.3 NNW 35 50 19 27 1013.0 1013.0 0.0
19/01:30pm 15.9 9.6 5.8 51 4.9 NNW 28 44 15 24 1013.9 1013.9 0.0
19/01:13pm 15.6 9.4 6.1 53 4.6 NNW 28 46 15 25 1014.2 1014.2 0.0
19/01:00pm 15.3 8.2 5.5 52 4.7 NNW 32 48 17 26 1014.4 1014.4 0.0
19/12:30pm 15.4 10.0 6.2 54 4.4 NNW 24 37 13 20 1015.0 1015.0 0.0
19/12:00pm 14.9 9.4 6.0 55 4.3 NNW 24 39 13 21 1015.7 1015.7 0.0
19/11:30am 14.4 8.1 5.5 55 4.2 NNW 28 46 15 25 1015.6 1015.6 0.0
19/11:29am 14.4 8.1 5.5 55 4.2 NNW 28 46 15 25 1015.6 1015.6 0.0
19/11:00am 14.3 8.4 5.7 56 4.1 NNW 26 39 14 21 1016.1 1016.1 0.0
19/10:30am 13.9 9.3 6.3 60 3.6 NNW 20 33 11 18 1016.4 1016.4 0.0
19/10:00am 14.2 8.5 6.8 61 3.6 NNW 26 37 14 20 1016.4 1016.4 0.0
19/09:30am 13.0 7.1 5.9 62 3.3 NNW 26 37 14 20 1016.3 1016.3 0.0
19/09:00am 12.3 7.8 5.9 65 3.0 N 19 30 10 16 1016.5 1016.5 0.4
19/08:30am 11.5 5.9 5.6 67 2.7 N 24 33 13 18 1016.5 1016.5 0.4
19/08:00am 11.1 5.5 5.2 67 2.7 N 24 35 13 19 1016.6 1016.6 0.4
19/07:30am 10.9 5.6 5.2 68 2.6 N 22 37 12 20 1016.8 1016.8 0.4
19/07:00am 10.5 5.3 5.5 71 2.3 NNW 22 33 12 18 1017.3 1017.3 0.4
19/06:30am 9.8 5.1 5.2 73 2.1 NNW 19 24 10 13 1017.1 1017.1 0.4
19/06:00am 9.4 4.7 5.0 74 2.0 N 19 26 10 14 1017.0 1017.0 0.4
19/05:30am 9.2 5.1 4.6 73 2.0 N 15 20 8 11 1016.8 1016.8 0.4
19/05:00am 9.8 5.0 4.6 70 2.3 N 19 30 10 16 1016.7 1016.7 0.4
19/04:30am 9.5 5.0 4.3 70 2.3 N 17 24 9 13 1016.7 1016.7 0.4
19/04:00am 9.5 4.6 4.1 69 2.4 N 19 28 10 15 1016.7 1016.7 0.4
19/03:30am 9.6 5.0 3.6 66 2.6 N 17 26 9 14 1016.8 1016.8 0.4
19/03:00am 9.3 4.3 3.5 67 2.5 N 19 28 10 15 1016.9 1016.9 0.4
19/02:30am 9.1 3.9 3.5 68 2.4 N 20 30 11 16 1017.3 1017.3 0.4
19/02:00am 9.1 3.9 3.7 69 2.3 NNW 20 32 11 17 1017.7 1017.7 0.4
19/01:30am 9.1 3.9 3.7 69 2.3 NNW 20 28 11 15 1018.0 1018.0 0.4
19/01:00am 8.5 3.6 3.9 73 2.0 NNW 19 24 10 13 1018.3 1018.3 0.4
19/12:30am 8.0 3.5 4.0 76 1.7 NNW 17 24 9 13 1018.6 1018.6 0.4
19/12:00am 7.3 3.5 3.9 79 1.5 NNW 13 19 7 10 1018.7 1018.7 0.4
 
Date/Time
EST
Temp
°C
App
Temp
°C
Dew
Point
°C
Rel
Hum
%
Delta-T
°C
Wind Press
QNH
hPa
Press
MSL
hPa
Rain since
9am
mm
Dir  Spd
km/h
Gust
km/h
Spd
kts
Gust
kts
18/11:30pm 7.3 3.9 4.1 80 1.4 N 11 15 6 8 1018.9 1018.9 0.4
18/11:00pm 7.3 4.0 4.3 81 1.3 N 11 13 6 7 1019.2 1019.2 0.4
18/10:30pm 7.4 4.5 4.7 83 1.2 NNW 9 13 5 7 1019.3 1019.3 0.4
18/10:00pm 8.0 4.4 4.9 81 1.4 N 13 15 7 8 1019.3 1019.3 0.4
18/09:30pm 8.2 4.6 5.1 81 1.4 NNW 13 19 7 10 1019.0 1019.0 0.4
18/09:00pm 8.9 4.9 5.1 77 1.7 NW 15 19 8 10 1019.0 1019.0 0.4
18/08:30pm 9.5 5.2 5.3 75 1.9 NW 17 20 9 11 1018.6 1018.6 0.4
18/08:00pm 9.4 6.4 6.1 80 1.5 NNW 11 15 6 8 1018.5 1018.5 0.4
18/07:30pm 8.7 6.1 6.0 83 1.2 NW 9 15 5 8 1018.2 1018.2 0.4
18/07:00pm 9.4 6.7 5.8 78 1.6 NW 9 13 5 7 1017.8 1017.8 0.4
18/06:30pm 10.2 6.4 6.0 75 1.9 WNW 15 20 8 11 1017.4 1017.4 0.4
18/06:00pm 11.4 6.8 5.7 68 2.6 WNW 19 24 10 13 1017.0 1017.0 0.4
18/05:30pm 11.7 7.6 6.4 70 2.5 W 17 24 9 13 1016.8 1016.8 0.4
18/05:00pm 11.5 6.6 6.8 73 2.2 W 22 35 12 19 1016.4 1016.4 0.4
18/04:44pm 10.8 5.2 7.3 79 1.7 W 26 39 14 21 1016.4 1016.4 0.2
18/04:31pm 10.5 4.1 6.8 78 1.7 W 30 48 16 26 1016.2 1016.2 0.2
18/04:30pm 10.6 3.8 6.9 78 1.8 W 32 48 17 26 1016.2 1016.2 0.2
18/04:24pm 11.5 5.3 6.2 70 2.5 WSW 28 46 15 25 1016.0 1016.0 0.0
18/04:00pm 11.7 5.4 5.6 66 2.8 WSW 28 41 15 22 1015.7 1015.7 0.0
18/03:30pm 11.9 4.2 5.3 64 3.0 WSW 35 54 19 29 1015.0 1015.0 0.0
18/03:25pm 13.7 6.8 4.6 54 4.2 WSW 30 54 16 29 1015.0 1015.0 0.0
18/03:00pm 14.5 7.5 3.9 49 4.8 WSW 30 52 16 28 1014.2 1014.2 0.0
18/02:33pm 16.3 9.6 3.4 42 5.9 W 28 46 15 25 1014.0 1014.0 0.0
18/02:30pm 16.0 8.4 3.1 42 5.9 W 32 46 17 25 1014.0 1014.0 0.0
18/02:00pm 15.5 7.5 3.9 46 5.3 WNW 35 54 19 29 1014.2 1014.2 0.0
18/01:38pm 14.8 6.9 4.2 49 4.9 WNW 35 57 19 31 1013.6 1013.6 0.0
18/01:30pm 14.9 7.1 5.1 52 4.6 WNW 35 52 19 28 1013.7 1013.7 0.0
18/01:04pm 13.6 7.3 5.5 58 3.8 W 28 57 15 31 1013.8 1013.8 0.0
18/01:00pm 14.5 8.3 4.2 50 4.7 W 26 35 14 19 1013.5 1013.5 0.0
18/12:30pm 13.4 5.7 5.3 58 3.8 WSW 35 50 19 27 1013.9 1013.9 0.0
18/12:18pm 12.7 4.8 6.1 64 3.1 WSW 37 52 20 28 1013.8 1013.8 0.0
18/12:05pm 15.7 7.8 4.1 46 5.4 W 35 54 19 29 1013.5 1013.5 0.0

Other formats

Comma delimited format used in spreadsheet applications
http://www.bom.gov.au/fwo/IDV60801/IDV60801.94865.axf

JavaScript Object Notation format (JSON) in row-major order
http://www.bom.gov.au/fwo/IDV60801/IDV60801.94865.json

Data quality

Most of these data are generated automatically and are frequently updated. Quality checks on data are not normally performed. It is possible for incorrect values to appear. Refer to information at About Latest Weather Observations and please check the disclaimer before using these data.